メインページ
METAR-TAF:

METAR-TAF

空港 :

西安, 中華人民共和国

西安咸陽国際空港

緯度: 34-26N, 経度: 108-45E, 海抜: 479m

現時点の気象観測

当レポートは36分前の09:00(UTC)に作成
南東の風 6kt、東/北東からの間で変化する
気温 29°C
湿度 12%
気圧 1007 hPa
視程10km以上
1,500メートル以下は雲なし、積乱雲なし

METAR: ZLXY 290900Z 14003MPS 070V190 CAVOK 29/M03 Q1007 NOSIG

時間: 17:36 (09:36 UTC)

予報

当レポートは6時間21分前の03:15(UTC)に作成
予報は29日の 06時(UTC)から 30日の 06時(UTC)まで有効
の風 6kt
視程: 5000m
煙霧

TAF: ZLXY 290315Z 2906/3006 17003MPS 5000 HZ NSC TX29/2908Z TN12/2922Z

4,000以上の空港の気象観測と天気予報(METAR報とTAF報)

利用可能な観測所は地図上に黄色い丸と赤い丸で示す。

丸の上にカーソルを重ねると観測所名を参照できる。

次にクリックすると気象観測と天気予報を参照できる。

マップの切り替え:黒色「×」印の緑ボタンをクリックして拡大、「-」印の緑ボタンをクリックして縮小、緑色の三角印をクリックして隣りの地図に切り替え


METAR-TAF: